sensor_id;sensor_type;location;lat;lon;timestamp;temperature;humidity
11736;DHT22;5924;51.398;7.088;2023-06-14T00:00:40;14.60;99.90
11736;DHT22;5924;51.398;7.088;2023-06-14T00:03:09;14.60;99.90
11736;DHT22;5924;51.398;7.088;2023-06-14T00:05:36;14.50;99.90
11736;DHT22;5924;51.398;7.088;2023-06-14T00:08:09;14.50;99.90
11736;DHT22;5924;51.398;7.088;2023-06-14T00:10:35;14.40;1.00
11736;DHT22;5924;51.398;7.088;2023-06-14T00:13:02;14.40;1.00
11736;DHT22;5924;51.398;7.088;2023-06-14T00:15:28;14.30;1.00
11736;DHT22;5924;51.398;7.088;2023-06-14T00:17:54;14.30;1.00
11736;DHT22;5924;51.398;7.088;2023-06-14T00:20:20;14.30;1.00
11736;DHT22;5924;51.398;7.088;2023-06-14T00:22:46;14.20;1.00
11736;DHT22;5924;51.398;7.088;2023-06-14T00:25:13;14.10;1.00
11736;DHT22;5924;51.398;7.088;2023-06-14T00:27:39;14.10;1.00
11736;DHT22;5924;51.398;7.088;2023-06-14T00:30:05;14.10;1.00
11736;DHT22;5924;51.398;7.088;2023-06-14T00:32:31;14.00;1.00
11736;DHT22;5924;51.398;7.088;2023-06-14T00:34:56;14.80;1.00
11736;DHT22;5924;51.398;7.088;2023-06-14T00:37:22;14.00;1.00
11736;DHT22;5924;51.398;7.088;2023-06-14T00:39:47;13.90;1.00
11736;DHT22;5924;51.398;7.088;2023-06-14T00:42:26;13.90;1.00
11736;DHT22;5924;51.398;7.088;2023-06-14T00:44:52;13.90;1.00
11736;DHT22;5924;51.398;7.088;2023-06-14T00:47:18;13.80;1.00
11736;DHT22;5924;51.398;7.088;2023-06-14T00:49:48;13.80;1.00
11736;DHT22;5924;51.398;7.088;2023-06-14T00:52:15;13.70;1.00
11736;DHT22;5924;51.398;7.088;2023-06-14T00:54:42;13.70;1.00
11736;DHT22;5924;51.398;7.088;2023-06-14T00:57:08;13.70;1.00
11736;DHT22;5924;51.398;7.088;2023-06-14T00:59:42;13.60;1.00
11736;DHT22;5924;51.398;7.088;2023-06-14T01:02:08;13.60;1.00
11736;DHT22;5924;51.398;7.088;2023-06-14T01:04:34;13.60;1.00
11736;DHT22;5924;51.398;7.088;2023-06-14T01:07:12;13.60;1.00
11736;DHT22;5924;51.398;7.088;2023-06-14T01:12:28;13.60;1.00
11736;DHT22;5924;51.398;7.088;2023-06-14T01:14:57;13.50;1.00
11736;DHT22;5924;51.398;7.088;2023-06-14T01:17:25;13.50;1.00
11736;DHT22;5924;51.398;7.088;2023-06-14T01:19:52;13.50;1.00
11736;DHT22;5924;51.398;7.088;2023-06-14T01:22:27;13.40;1.00
11736;DHT22;5924;51.398;7.088;2023-06-14T01:24:53;13.40;1.00
11736;DHT22;5924;51.398;7.088;2023-06-14T01:27:23;13.40;1.00
11736;DHT22;5924;51.398;7.088;2023-06-14T01:29:51;11.90;1.00
11736;DHT22;5924;51.398;7.088;2023-06-14T01:32:18;13.40;1.00
11736;DHT22;5924;51.398;7.088;2023-06-14T01:34:44;13.40;1.00
11736;DHT22;5924;51.398;7.088;2023-06-14T01:37:10;13.40;1.00
11736;DHT22;5924;51.398;7.088;2023-06-14T01:39:37;13.30;1.00
11736;DHT22;5924;51.398;7.088;2023-06-14T01:42:03;13.40;1.00
11736;DHT22;5924;51.398;7.088;2023-06-14T01:44:30;13.40;1.00
11736;DHT22;5924;51.398;7.088;2023-06-14T01:46:57;13.30;1.00
11736;DHT22;5924;51.398;7.088;2023-06-14T01:49:22;13.40;1.00
11736;DHT22;5924;51.398;7.088;2023-06-14T01:51:48;13.40;1.00
11736;DHT22;5924;51.398;7.088;2023-06-14T01:54:14;13.40;1.00
11736;DHT22;5924;51.398;7.088;2023-06-14T01:56:39;13.30;1.00
11736;DHT22;5924;51.398;7.088;2023-06-14T01:59:05;13.30;1.00
11736;DHT22;5924;51.398;7.088;2023-06-14T02:01:31;13.30;1.00
11736;DHT22;5924;51.398;7.088;2023-06-14T02:03:56;15.90;1.00
11736;DHT22;5924;51.398;7.088;2023-06-14T02:06:22;13.20;1.00
11736;DHT22;5924;51.398;7.088;2023-06-14T02:08:48;13.20;1.00
11736;DHT22;5924;51.398;7.088;2023-06-14T02:11:14;13.20;1.00
11736;DHT22;5924;51.398;7.088;2023-06-14T02:13:40;13.10;1.00
11736;DHT22;5924;51.398;7.088;2023-06-14T02:16:06;13.10;1.00
11736;DHT22;5924;51.398;7.088;2023-06-14T02:18:32;15.40;1.00
11736;DHT22;5924;51.398;7.088;2023-06-14T02:20:58;13.10;1.00
11736;DHT22;5924;51.398;7.088;2023-06-14T02:23:23;13.10;1.00
11736;DHT22;5924;51.398;7.088;2023-06-14T02:25:49;13.10;1.00
11736;DHT22;5924;51.398;7.088;2023-06-14T02:28:15;13.00;1.00
11736;DHT22;5924;51.398;7.088;2023-06-14T02:30:40;13.00;1.00
11736;DHT22;5924;51.398;7.088;2023-06-14T02:33:06;13.00;1.00
11736;DHT22;5924;51.398;7.088;2023-06-14T02:35:31;13.80;1.00
11736;DHT22;5924;51.398;7.088;2023-06-14T02:37:57;12.90;1.00
11736;DHT22;5924;51.398;7.088;2023-06-14T02:40:23;12.90;1.00
11736;DHT22;5924;51.398;7.088;2023-06-14T02:42:49;12.90;1.00
11736;DHT22;5924;51.398;7.088;2023-06-14T02:45:14;12.90;1.00
11736;DHT22;5924;51.398;7.088;2023-06-14T02:47:40;12.90;1.00
11736;DHT22;5924;51.398;7.088;2023-06-14T02:50:07;12.80;1.00
11736;DHT22;5924;51.398;7.088;2023-06-14T02:52:33;12.80;1.00
11736;DHT22;5924;51.398;7.088;2023-06-14T02:54:59;12.80;2.60
11736;DHT22;5924;51.398;7.088;2023-06-14T02:57:25;12.70;5.60
11736;DHT22;5924;51.398;7.088;2023-06-14T02:59:50;12.70;8.20
11736;DHT22;5924;51.398;7.088;2023-06-14T03:02:17;12.70;10.70
11736;DHT22;5924;51.398;7.088;2023-06-14T03:04:42;12.30;13.30
11736;DHT22;5924;51.398;7.088;2023-06-14T03:07:10;12.60;14.30
11736;DHT22;5924;51.398;7.088;2023-06-14T03:09:36;12.60;16.30
11736;DHT22;5924;51.398;7.088;2023-06-14T03:12:03;12.50;17.40
11736;DHT22;5924;51.398;7.088;2023-06-14T03:14:29;12.50;17.20
11736;DHT22;5924;51.398;7.088;2023-06-14T03:16:56;12.50;17.90
11736;DHT22;5924;51.398;7.088;2023-06-14T03:19:22;12.50;16.90
11736;DHT22;5924;51.398;7.088;2023-06-14T03:21:48;12.50;14.80
11736;DHT22;5924;51.398;7.088;2023-06-14T03:24:15;12.50;12.40
11736;DHT22;5924;51.398;7.088;2023-06-14T03:26:42;12.50;10.10
11736;DHT22;5924;51.398;7.088;2023-06-14T03:29:08;12.50;9.30
11736;DHT22;5924;51.398;7.088;2023-06-14T03:31:34;12.50;8.20
11736;DHT22;5924;51.398;7.088;2023-06-14T03:34:01;12.50;7.50
11736;DHT22;5924;51.398;7.088;2023-06-14T03:36:27;12.50;7.50
11736;DHT22;5924;51.398;7.088;2023-06-14T03:38:55;12.40;5.80
11736;DHT22;5924;51.398;7.088;2023-06-14T03:41:21;12.40;5.40
11736;DHT22;5924;51.398;7.088;2023-06-14T03:43:46;12.40;5.90
11736;DHT22;5924;51.398;7.088;2023-06-14T03:46:12;12.40;6.50
11736;DHT22;5924;51.398;7.088;2023-06-14T03:48:38;12.40;7.00
11736;DHT22;5924;51.398;7.088;2023-06-14T03:51:04;12.40;8.20
11736;DHT22;5924;51.398;7.088;2023-06-14T03:53:30;12.40;9.20
11736;DHT22;5924;51.398;7.088;2023-06-14T03:55:56;12.40;10.10
11736;DHT22;5924;51.398;7.088;2023-06-14T03:58:22;12.40;10.80
11736;DHT22;5924;51.398;7.088;2023-06-14T04:00:48;12.40;11.00
11736;DHT22;5924;51.398;7.088;2023-06-14T04:03:14;12.40;12.60
11736;DHT22;5924;51.398;7.088;2023-06-14T04:05:41;12.40;13.70
11736;DHT22;5924;51.398;7.088;2023-06-14T04:08:14;12.40;14.70
11736;DHT22;5924;51.398;7.088;2023-06-14T04:10:41;12.40;15.30
11736;DHT22;5924;51.398;7.088;2023-06-14T04:13:07;12.40;16.70
11736;DHT22;5924;51.398;7.088;2023-06-14T04:15:32;12.50;17.50
11736;DHT22;5924;51.398;7.088;2023-06-14T04:17:59;12.40;17.90
11736;DHT22;5924;51.398;7.088;2023-06-14T04:20:25;12.50;17.90
11736;DHT22;5924;51.398;7.088;2023-06-14T04:22:52;12.50;18.30
11736;DHT22;5924;51.398;7.088;2023-06-14T04:25:22;12.50;19.50
11736;DHT22;5924;51.398;7.088;2023-06-14T04:27:48;12.50;20.20
11736;DHT22;5924;51.398;7.088;2023-06-14T04:30:15;12.50;22.00
11736;DHT22;5924;51.398;7.088;2023-06-14T04:32:41;12.50;23.20
11736;DHT22;5924;51.398;7.088;2023-06-14T04:35:08;12.60;24.80
11736;DHT22;5924;51.398;7.088;2023-06-14T04:37:34;12.60;22.40
11736;DHT22;5924;51.398;7.088;2023-06-14T04:40:00;12.60;20.50
11736;DHT22;5924;51.398;7.088;2023-06-14T04:42:26;12.70;18.50
11736;DHT22;5924;51.398;7.088;2023-06-14T04:44:55;12.70;15.40
11736;DHT22;5924;51.398;7.088;2023-06-14T04:47:21;12.80;11.40
11736;DHT22;5924;51.398;7.088;2023-06-14T04:49:47;12.80;8.10
11736;DHT22;5924;51.398;7.088;2023-06-14T04:52:13;11.00;2.80
11736;DHT22;5924;51.398;7.088;2023-06-14T04:54:39;12.90;1.00
11736;DHT22;5924;51.398;7.088;2023-06-14T04:57:11;12.90;1.00
11736;DHT22;5924;51.398;7.088;2023-06-14T04:59:43;13.00;1.00
11736;DHT22;5924;51.398;7.088;2023-06-14T05:02:12;13.10;1.00
11736;DHT22;5924;51.398;7.088;2023-06-14T05:04:38;13.10;1.00
11736;DHT22;5924;51.398;7.088;2023-06-14T05:07:09;13.20;1.00
11736;DHT22;5924;51.398;7.088;2023-06-14T05:09:37;13.30;1.00
11736;DHT22;5924;51.398;7.088;2023-06-14T05:12:03;15.00;1.00
11736;DHT22;5924;51.398;7.088;2023-06-14T05:14:29;13.40;1.00
11736;DHT22;5924;51.398;7.088;2023-06-14T05:16:55;13.50;1.00
11736;DHT22;5924;51.398;7.088;2023-06-14T05:19:21;13.60;1.00
11736;DHT22;5924;51.398;7.088;2023-06-14T05:21:47;13.60;1.00
11736;DHT22;5924;51.398;7.088;2023-06-14T05:24:14;13.70;1.00
11736;DHT22;5924;51.398;7.088;2023-06-14T05:26:39;13.80;1.00
11736;DHT22;5924;51.398;7.088;2023-06-14T05:29:05;13.80;1.00
11736;DHT22;5924;51.398;7.088;2023-06-14T05:31:31;13.90;1.00
11736;DHT22;5924;51.398;7.088;2023-06-14T05:33:57;14.00;1.00
11736;DHT22;5924;51.398;7.088;2023-06-14T05:36:22;14.10;1.00
11736;DHT22;5924;51.398;7.088;2023-06-14T05:38:48;14.10;1.00
11736;DHT22;5924;51.398;7.088;2023-06-14T05:41:14;14.20;1.00
11736;DHT22;5924;51.398;7.088;2023-06-14T05:43:40;14.30;1.00
11736;DHT22;5924;51.398;7.088;2023-06-14T05:46:06;13.80;1.00
11736;DHT22;5924;51.398;7.088;2023-06-14T05:48:31;14.60;1.00
11736;DHT22;5924;51.398;7.088;2023-06-14T05:50:57;14.70;1.00
11736;DHT22;5924;51.398;7.088;2023-06-14T05:53:23;14.90;1.00
11736;DHT22;5924;51.398;7.088;2023-06-14T05:55:49;15.00;99.90
11736;DHT22;5924;51.398;7.088;2023-06-14T05:58:17;15.20;99.90
11736;DHT22;5924;51.398;7.088;2023-06-14T06:00:42;15.30;99.90
11736;DHT22;5924;51.398;7.088;2023-06-14T06:03:08;15.30;99.90
11736;DHT22;5924;51.398;7.088;2023-06-14T06:05:36;15.40;82.80
11736;DHT22;5924;51.398;7.088;2023-06-14T06:08:02;15.50;3.20
11736;DHT22;5924;51.398;7.088;2023-06-14T06:10:27;15.50;9.50
11736;DHT22;5924;51.398;7.088;2023-06-14T06:12:53;15.60;1.00
11736;DHT22;5924;51.398;7.088;2023-06-14T06:15:20;15.70;1.00
11736;DHT22;5924;51.398;7.088;2023-06-14T06:17:45;15.80;1.00
11736;DHT22;5924;51.398;7.088;2023-06-14T06:20:11;15.90;99.90
11736;DHT22;5924;51.398;7.088;2023-06-14T06:22:38;16.10;1.00
11736;DHT22;5924;51.398;7.088;2023-06-14T06:25:04;16.20;1.00
11736;DHT22;5924;51.398;7.088;2023-06-14T06:27:30;16.30;99.90
11736;DHT22;5924;51.398;7.088;2023-06-14T06:29:56;16.40;1.00
11736;DHT22;5924;51.398;7.088;2023-06-14T06:32:21;16.50;99.90
11736;DHT22;5924;51.398;7.088;2023-06-14T06:34:47;16.60;99.90
11736;DHT22;5924;51.398;7.088;2023-06-14T06:37:13;16.70;92.60
11736;DHT22;5924;51.398;7.088;2023-06-14T06:39:39;16.80;38.20
11736;DHT22;5924;51.398;7.088;2023-06-14T06:42:05;17.00;1.00
11736;DHT22;5924;51.398;7.088;2023-06-14T06:44:32;17.10;1.00
11736;DHT22;5924;51.398;7.088;2023-06-14T06:46:58;17.20;1.00
11736;DHT22;5924;51.398;7.088;2023-06-14T06:49:23;17.30;1.00
11736;DHT22;5924;51.398;7.088;2023-06-14T06:52:06;17.40;1.00
11736;DHT22;5924;51.398;7.088;2023-06-14T06:54:32;17.50;1.00
11736;DHT22;5924;51.398;7.088;2023-06-14T06:56:58;17.60;1.00
11736;DHT22;5924;51.398;7.088;2023-06-14T06:59:24;17.80;1.00
11736;DHT22;5924;51.398;7.088;2023-06-14T07:01:50;17.90;1.00
11736;DHT22;5924;51.398;7.088;2023-06-14T07:04:16;18.00;1.00
11736;DHT22;5924;51.398;7.088;2023-06-14T07:06:46;18.10;1.00
11736;DHT22;5924;51.398;7.088;2023-06-14T07:09:12;18.30;1.00
11736;DHT22;5924;51.398;7.088;2023-06-14T07:11:40;18.30;1.00
11736;DHT22;5924;51.398;7.088;2023-06-14T07:14:06;18.40;1.00
11736;DHT22;5924;51.398;7.088;2023-06-14T07:16:32;18.50;1.00
11736;DHT22;5924;51.398;7.088;2023-06-14T07:18:58;18.60;1.00
11736;DHT22;5924;51.398;7.088;2023-06-14T07:21:24;18.70;1.00
11736;DHT22;5924;51.398;7.088;2023-06-14T07:23:52;18.80;1.00
11736;DHT22;5924;51.398;7.088;2023-06-14T07:26:18;18.90;1.00
11736;DHT22;5924;51.398;7.088;2023-06-14T07:28:44;19.00;1.00
11736;DHT22;5924;51.398;7.088;2023-06-14T07:31:12;19.10;1.00
11736;DHT22;5924;51.398;7.088;2023-06-14T07:33:38;19.30;1.00
11736;DHT22;5924;51.398;7.088;2023-06-14T07:36:04;19.40;1.00
11736;DHT22;5924;51.398;7.088;2023-06-14T07:38:30;19.50;1.00
11736;DHT22;5924;51.398;7.088;2023-06-14T07:40:55;19.70;1.00
11736;DHT22;5924;51.398;7.088;2023-06-14T07:43:21;19.80;1.00
11736;DHT22;5924;51.398;7.088;2023-06-14T07:45:47;19.90;1.00
11736;DHT22;5924;51.398;7.088;2023-06-14T07:48:12;19.90;1.00
11736;DHT22;5924;51.398;7.088;2023-06-14T07:50:38;20.00;1.00
11736;DHT22;5924;51.398;7.088;2023-06-14T07:53:03;20.00;1.00
11736;DHT22;5924;51.398;7.088;2023-06-14T07:55:29;20.00;1.00
11736;DHT22;5924;51.398;7.088;2023-06-14T07:57:56;20.10;1.00
11736;DHT22;5924;51.398;7.088;2023-06-14T08:00:21;20.20;1.00
11736;DHT22;5924;51.398;7.088;2023-06-14T08:02:47;20.40;1.00
11736;DHT22;5924;51.398;7.088;2023-06-14T08:05:13;20.40;1.00
11736;DHT22;5924;51.398;7.088;2023-06-14T08:07:39;20.50;1.00
11736;DHT22;5924;51.398;7.088;2023-06-14T08:10:06;20.50;1.00
11736;DHT22;5924;51.398;7.088;2023-06-14T08:12:32;20.50;1.00
11736;DHT22;5924;51.398;7.088;2023-06-14T08:14:58;20.50;1.00
11736;DHT22;5924;51.398;7.088;2023-06-14T08:17:24;20.70;1.00
11736;DHT22;5924;51.398;7.088;2023-06-14T08:19:50;20.70;1.00
11736;DHT22;5924;51.398;7.088;2023-06-14T08:22:16;20.80;1.00
11736;DHT22;5924;51.398;7.088;2023-06-14T08:24:43;20.90;1.00
11736;DHT22;5924;51.398;7.088;2023-06-14T08:27:10;21.00;1.00
11736;DHT22;5924;51.398;7.088;2023-06-14T08:29:35;20.90;1.00
11736;DHT22;5924;51.398;7.088;2023-06-14T08:32:01;20.80;1.00
11736;DHT22;5924;51.398;7.088;2023-06-14T08:34:27;20.80;1.00
11736;DHT22;5924;51.398;7.088;2023-06-14T08:36:53;20.80;1.00
11736;DHT22;5924;51.398;7.088;2023-06-14T08:39:18;20.90;1.00
11736;DHT22;5924;51.398;7.088;2023-06-14T08:41:47;21.00;1.00
11736;DHT22;5924;51.398;7.088;2023-06-14T08:44:17;21.10;1.00
11736;DHT22;5924;51.398;7.088;2023-06-14T08:46:42;21.20;1.00
11736;DHT22;5924;51.398;7.088;2023-06-14T08:49:11;21.30;1.00
11736;DHT22;5924;51.398;7.088;2023-06-14T08:51:38;21.10;1.00
11736;DHT22;5924;51.398;7.088;2023-06-14T08:54:06;21.10;1.00
11736;DHT22;5924;51.398;7.088;2023-06-14T08:56:32;21.20;1.00
11736;DHT22;5924;51.398;7.088;2023-06-14T08:58:59;21.30;1.00
11736;DHT22;5924;51.398;7.088;2023-06-14T09:01:28;21.40;1.00
11736;DHT22;5924;51.398;7.088;2023-06-14T09:03:54;21.50;1.00
11736;DHT22;5924;51.398;7.088;2023-06-14T09:06:23;21.40;1.00
11736;DHT22;5924;51.398;7.088;2023-06-14T09:08:50;21.30;1.00
11736;DHT22;5924;51.398;7.088;2023-06-14T09:11:18;21.40;1.00
11736;DHT22;5924;51.398;7.088;2023-06-14T09:13:45;21.50;1.00
11736;DHT22;5924;51.398;7.088;2023-06-14T09:16:11;21.60;1.00
11736;DHT22;5924;51.398;7.088;2023-06-14T09:18:39;21.50;1.00
11736;DHT22;5924;51.398;7.088;2023-06-14T09:21:08;21.50;1.00
11736;DHT22;5924;51.398;7.088;2023-06-14T09:23:38;21.60;1.00
11736;DHT22;5924;51.398;7.088;2023-06-14T09:26:22;21.60;1.00
11736;DHT22;5924;51.398;7.088;2023-06-14T09:28:52;21.50;1.00
11736;DHT22;5924;51.398;7.088;2023-06-14T09:31:19;21.50;1.00
11736;DHT22;5924;51.398;7.088;2023-06-14T09:33:46;21.70;1.00
11736;DHT22;5924;51.398;7.088;2023-06-14T09:36:25;21.80;1.00
11736;DHT22;5924;51.398;7.088;2023-06-14T09:38:54;22.10;1.00
11736;DHT22;5924;51.398;7.088;2023-06-14T09:41:27;22.40;1.00
11736;DHT22;5924;51.398;7.088;2023-06-14T09:43:56;22.50;1.00
11736;DHT22;5924;51.398;7.088;2023-06-14T09:46:27;22.70;1.00
11736;DHT22;5924;51.398;7.088;2023-06-14T09:48:53;22.70;1.00
11736;DHT22;5924;51.398;7.088;2023-06-14T09:51:19;22.80;1.00
11736;DHT22;5924;51.398;7.088;2023-06-14T09:53:49;22.80;1.00
11736;DHT22;5924;51.398;7.088;2023-06-14T09:58:50;22.80;1.00
11736;DHT22;5924;51.398;7.088;2023-06-14T10:01:18;22.90;1.00
11736;DHT22;5924;51.398;7.088;2023-06-14T10:03:45;23.00;1.00
11736;DHT22;5924;51.398;7.088;2023-06-14T10:06:11;23.10;1.00
11736;DHT22;5924;51.398;7.088;2023-06-14T10:08:38;22.90;1.00
11736;DHT22;5924;51.398;7.088;2023-06-14T10:11:05;22.80;1.00
11736;DHT22;5924;51.398;7.088;2023-06-14T10:13:32;22.90;1.00
11736;DHT22;5924;51.398;7.088;2023-06-14T10:16:17;23.00;1.00
11736;DHT22;5924;51.398;7.088;2023-06-14T10:21:33;23.40;1.00
11736;DHT22;5924;51.398;7.088;2023-06-14T10:24:05;23.10;1.00
11736;DHT22;5924;51.398;7.088;2023-06-14T10:26:32;23.10;1.00
11736;DHT22;5924;51.398;7.088;2023-06-14T10:29:01;23.20;1.00
11736;DHT22;5924;51.398;7.088;2023-06-14T10:31:49;23.30;1.00
11736;DHT22;5924;51.398;7.088;2023-06-14T10:34:26;23.40;1.00
11736;DHT22;5924;51.398;7.088;2023-06-14T10:37:12;23.50;1.00
11736;DHT22;5924;51.398;7.088;2023-06-14T10:39:43;23.30;1.00
11736;DHT22;5924;51.398;7.088;2023-06-14T10:42:13;23.30;1.00
11736;DHT22;5924;51.398;7.088;2023-06-14T10:44:58;23.30;1.00
11736;DHT22;5924;51.398;7.088;2023-06-14T10:47:33;23.40;1.00
11736;DHT22;5924;51.398;7.088;2023-06-14T10:50:04;23.50;1.00
11736;DHT22;5924;51.398;7.088;2023-06-14T10:52:42;23.50;1.00
11736;DHT22;5924;51.398;7.088;2023-06-14T10:55:13;23.60;1.00
11736;DHT22;5924;51.398;7.088;2023-06-14T10:57:44;23.70;1.00
11736;DHT22;5924;51.398;7.088;2023-06-14T11:00:13;23.70;1.00
11736;DHT22;5924;51.398;7.088;2023-06-14T11:05:15;23.70;1.00
11736;DHT22;5924;51.398;7.088;2023-06-14T11:08:04;23.80;1.00
11736;DHT22;5924;51.398;7.088;2023-06-14T11:10:41;24.00;1.00
11736;DHT22;5924;51.398;7.088;2023-06-14T11:13:07;24.20;1.00
11736;DHT22;5924;51.398;7.088;2023-06-14T11:15:38;24.20;1.00
11736;DHT22;5924;51.398;7.088;2023-06-14T11:18:07;24.10;1.00
11736;DHT22;5924;51.398;7.088;2023-06-14T11:20:36;24.00;1.00
11736;DHT22;5924;51.398;7.088;2023-06-14T11:23:03;24.00;1.00
11736;DHT22;5924;51.398;7.088;2023-06-14T11:25:29;24.30;1.00
11736;DHT22;5924;51.398;7.088;2023-06-14T11:27:55;24.50;1.00
11736;DHT22;5924;51.398;7.088;2023-06-14T11:30:22;24.40;1.00
11736;DHT22;5924;51.398;7.088;2023-06-14T11:32:52;24.40;1.00
11736;DHT22;5924;51.398;7.088;2023-06-14T11:35:19;24.50;1.00
11736;DHT22;5924;51.398;7.088;2023-06-14T11:37:47;24.60;1.00
11736;DHT22;5924;51.398;7.088;2023-06-14T11:40:14;24.80;1.00
11736;DHT22;5924;51.398;7.088;2023-06-14T11:42:41;24.70;1.00
11736;DHT22;5924;51.398;7.088;2023-06-14T11:45:11;24.70;1.00
11736;DHT22;5924;51.398;7.088;2023-06-14T11:47:38;25.10;1.00
11736;DHT22;5924;51.398;7.088;2023-06-14T11:50:06;25.50;1.00
11736;DHT22;5924;51.398;7.088;2023-06-14T11:52:32;25.80;1.00
11736;DHT22;5924;51.398;7.088;2023-06-14T11:54:58;26.00;1.00
11736;DHT22;5924;51.398;7.088;2023-06-14T11:57:25;26.00;1.00
11736;DHT22;5924;51.398;7.088;2023-06-14T11:59:51;25.80;1.00
11736;DHT22;5924;51.398;7.088;2023-06-14T12:02:18;25.80;1.00
11736;DHT22;5924;51.398;7.088;2023-06-14T12:04:44;26.00;1.00
11736;DHT22;5924;51.398;7.088;2023-06-14T12:07:13;25.90;1.00
11736;DHT22;5924;51.398;7.088;2023-06-14T12:12:23;25.70;1.00
11736;DHT22;5924;51.398;7.088;2023-06-14T12:14:51;25.90;1.00
11736;DHT22;5924;51.398;7.088;2023-06-14T12:17:17;26.30;1.00
11736;DHT22;5924;51.398;7.088;2023-06-14T12:19:44;26.50;1.00
11736;DHT22;5924;51.398;7.088;2023-06-14T12:22:11;26.50;1.00
11736;DHT22;5924;51.398;7.088;2023-06-14T12:24:37;26.60;1.00
11736;DHT22;5924;51.398;7.088;2023-06-14T12:27:04;27.00;1.00
11736;DHT22;5924;51.398;7.088;2023-06-14T12:29:30;27.40;1.00
11736;DHT22;5924;51.398;7.088;2023-06-14T12:31:56;27.60;1.00
11736;DHT22;5924;51.398;7.088;2023-06-14T12:34:26;27.30;1.00
11736;DHT22;5924;51.398;7.088;2023-06-14T12:36:53;27.90;1.00
11736;DHT22;5924;51.398;7.088;2023-06-14T12:39:20;28.20;1.00
11736;DHT22;5924;51.398;7.088;2023-06-14T12:41:46;28.60;1.00
11736;DHT22;5924;51.398;7.088;2023-06-14T12:44:12;29.00;1.00
11736;DHT22;5924;51.398;7.088;2023-06-14T12:46:38;29.40;1.00
11736;DHT22;5924;51.398;7.088;2023-06-14T12:49:11;29.90;1.00
11736;DHT22;5924;51.398;7.088;2023-06-14T12:51:37;29.70;1.00
11736;DHT22;5924;51.398;7.088;2023-06-14T12:54:04;29.50;1.00
11736;DHT22;5924;51.398;7.088;2023-06-14T12:56:29;29.10;1.00
11736;DHT22;5924;51.398;7.088;2023-06-14T12:58:55;29.30;1.00
11736;DHT22;5924;51.398;7.088;2023-06-14T13:01:21;29.60;1.00
11736;DHT22;5924;51.398;7.088;2023-06-14T13:03:47;29.70;1.00
11736;DHT22;5924;51.398;7.088;2023-06-14T13:06:13;30.00;1.00
11736;DHT22;5924;51.398;7.088;2023-06-14T13:08:39;30.20;1.00
11736;DHT22;5924;51.398;7.088;2023-06-14T13:11:04;30.50;1.00
11736;DHT22;5924;51.398;7.088;2023-06-14T13:13:30;30.60;1.00
11736;DHT22;5924;51.398;7.088;2023-06-14T13:15:56;30.50;1.00
11736;DHT22;5924;51.398;7.088;2023-06-14T13:18:22;30.70;1.00
11736;DHT22;5924;51.398;7.088;2023-06-14T13:20:47;30.80;1.00
11736;DHT22;5924;51.398;7.088;2023-06-14T13:23:13;30.40;1.00
11736;DHT22;5924;51.398;7.088;2023-06-14T13:25:39;30.40;1.00
11736;DHT22;5924;51.398;7.088;2023-06-14T13:28:05;30.40;1.00
11736;DHT22;5924;51.398;7.088;2023-06-14T13:30:32;30.30;1.00
11736;DHT22;5924;51.398;7.088;2023-06-14T13:32:58;30.80;1.00
11736;DHT22;5924;51.398;7.088;2023-06-14T13:35:24;31.20;1.00
11736;DHT22;5924;51.398;7.088;2023-06-14T13:37:51;31.70;1.00
11736;DHT22;5924;51.398;7.088;2023-06-14T13:40:16;31.80;1.00
11736;DHT22;5924;51.398;7.088;2023-06-14T13:42:42;31.50;1.00
11736;DHT22;5924;51.398;7.088;2023-06-14T13:45:09;31.30;1.00
11736;DHT22;5924;51.398;7.088;2023-06-14T13:47:35;31.10;1.00
11736;DHT22;5924;51.398;7.088;2023-06-14T13:50:02;31.40;1.00
11736;DHT22;5924;51.398;7.088;2023-06-14T13:52:28;31.70;1.00
11736;DHT22;5924;51.398;7.088;2023-06-14T13:54:54;31.70;1.00
11736;DHT22;5924;51.398;7.088;2023-06-14T13:57:20;31.00;1.00
11736;DHT22;5924;51.398;7.088;2023-06-14T13:59:46;31.10;1.00
11736;DHT22;5924;51.398;7.088;2023-06-14T14:02:12;31.30;1.00
11736;DHT22;5924;51.398;7.088;2023-06-14T14:04:38;31.30;1.00
11736;DHT22;5924;51.398;7.088;2023-06-14T14:07:05;31.10;1.00
11736;DHT22;5924;51.398;7.088;2023-06-14T14:09:32;31.40;1.00
11736;DHT22;5924;51.398;7.088;2023-06-14T14:11:58;31.40;1.00
11736;DHT22;5924;51.398;7.088;2023-06-14T14:14:24;31.30;1.00
11736;DHT22;5924;51.398;7.088;2023-06-14T14:16:50;31.50;1.00
11736;DHT22;5924;51.398;7.088;2023-06-14T14:19:17;31.90;1.00
11736;DHT22;5924;51.398;7.088;2023-06-14T14:21:44;31.80;1.00
11736;DHT22;5924;51.398;7.088;2023-06-14T14:24:10;31.70;1.00
11736;DHT22;5924;51.398;7.088;2023-06-14T14:26:36;31.70;1.00
11736;DHT22;5924;51.398;7.088;2023-06-14T14:29:01;32.00;1.00
11736;DHT22;5924;51.398;7.088;2023-06-14T14:31:28;32.20;1.00
11736;DHT22;5924;51.398;7.088;2023-06-14T14:33:53;32.20;1.00
11736;DHT22;5924;51.398;7.088;2023-06-14T14:36:19;32.80;1.00
11736;DHT22;5924;51.398;7.088;2023-06-14T14:38:45;33.20;1.00
11736;DHT22;5924;51.398;7.088;2023-06-14T14:41:12;33.20;1.00
11736;DHT22;5924;51.398;7.088;2023-06-14T14:43:38;33.00;1.00
11736;DHT22;5924;51.398;7.088;2023-06-14T14:46:03;32.60;1.00
11736;DHT22;5924;51.398;7.088;2023-06-14T14:48:29;32.10;1.00
11736;DHT22;5924;51.398;7.088;2023-06-14T14:50:55;31.80;1.00
11736;DHT22;5924;51.398;7.088;2023-06-14T14:53:21;31.30;1.00
11736;DHT22;5924;51.398;7.088;2023-06-14T14:55:46;31.10;1.00
11736;DHT22;5924;51.398;7.088;2023-06-14T14:58:13;31.50;1.00
11736;DHT22;5924;51.398;7.088;2023-06-14T15:00:39;31.50;1.00
11736;DHT22;5924;51.398;7.088;2023-06-14T15:03:05;31.20;1.00
11736;DHT22;5924;51.398;7.088;2023-06-14T15:05:31;31.10;1.00
11736;DHT22;5924;51.398;7.088;2023-06-14T15:07:56;31.20;1.00
11736;DHT22;5924;51.398;7.088;2023-06-14T15:10:22;31.70;1.00
11736;DHT22;5924;51.398;7.088;2023-06-14T15:12:48;32.10;1.00
11736;DHT22;5924;51.398;7.088;2023-06-14T15:15:13;32.20;1.00
11736;DHT22;5924;51.398;7.088;2023-06-14T15:17:39;32.30;1.00
11736;DHT22;5924;51.398;7.088;2023-06-14T15:20:05;32.30;1.00
11736;DHT22;5924;51.398;7.088;2023-06-14T15:22:31;32.40;1.00
11736;DHT22;5924;51.398;7.088;2023-06-14T15:24:57;32.20;1.00
11736;DHT22;5924;51.398;7.088;2023-06-14T15:27:22;32.10;1.00
11736;DHT22;5924;51.398;7.088;2023-06-14T15:29:48;31.80;1.00
11736;DHT22;5924;51.398;7.088;2023-06-14T15:32:14;31.40;1.00
11736;DHT22;5924;51.398;7.088;2023-06-14T15:34:39;31.70;1.00
11736;DHT22;5924;51.398;7.088;2023-06-14T15:37:06;31.80;1.00
11736;DHT22;5924;51.398;7.088;2023-06-14T15:39:32;31.60;1.00
11736;DHT22;5924;51.398;7.088;2023-06-14T15:41:59;31.30;1.00
11736;DHT22;5924;51.398;7.088;2023-06-14T15:44:25;31.40;1.00
11736;DHT22;5924;51.398;7.088;2023-06-14T15:46:50;31.50;1.00
11736;DHT22;5924;51.398;7.088;2023-06-14T15:49:16;31.70;1.00
11736;DHT22;5924;51.398;7.088;2023-06-14T15:51:42;31.60;1.00
11736;DHT22;5924;51.398;7.088;2023-06-14T15:54:07;31.50;1.00
11736;DHT22;5924;51.398;7.088;2023-06-14T15:56:33;31.20;1.00
11736;DHT22;5924;51.398;7.088;2023-06-14T15:58:59;31.00;1.00
11736;DHT22;5924;51.398;7.088;2023-06-14T16:01:26;31.10;1.00
11736;DHT22;5924;51.398;7.088;2023-06-14T16:03:52;31.00;1.00
11736;DHT22;5924;51.398;7.088;2023-06-14T16:06:18;31.10;1.00
11736;DHT22;5924;51.398;7.088;2023-06-14T16:08:44;31.40;1.00
11736;DHT22;5924;51.398;7.088;2023-06-14T16:11:11;31.60;1.00